RYR156 EGKK-EIDW
Flight info
| Callsign | RYR156 |
|---|---|
| Flight time | 1h 0m |
| Altitude | 30000 |
| Route | IMVUR N63 VOUGA N14 BIBPE DCT OKTAD DCT MEDOG DCT FOXLA DCT NICXI DCT LANPI/N0418F240 Q63 VATRY VATRY3R |
| Aircraft | B738/M-SDE2E3FGHIRWXY/LB1 |
Departure
| Time | 2026-05-04 10:19 |
|---|---|
| Airport | London Gatwick Airport (EGKK) |
Arrival
| Time | 2026-05-04 11:19 |
|---|---|
| Airport | Dublin Airport (EIDW) |
| Time | Latitude | Longitude | Altitude | Speed | Heading |
|---|---|---|---|---|---|
| 2026-05-04 09:42 | 51.16025 | -0.18010 | 212 ft | 0 kts | 78° |
| 2026-05-04 10:02 | 51.16036 | -0.18151 | 212 ft | 1 kts | 168° |
| 2026-05-04 10:05 | 51.16036 | -0.18150 | 212 ft | 0 kts | 168° |
| 2026-05-04 10:06 | 51.16019 | -0.18144 | 207 ft | 5 kts | 168° |
| 2026-05-04 10:06 | 51.15983 | -0.18132 | 204 ft | 6 kts | 167° |
| 2026-05-04 10:06 | 51.15934 | -0.18115 | 212 ft | 8 kts | 167° |
| 2026-05-04 10:08 | 51.15663 | -0.18224 | 207 ft | 10 kts | 258° |
| 2026-05-04 10:08 | 51.15642 | -0.18327 | 208 ft | 10 kts | 234° |
| 2026-05-04 10:08 | 51.15579 | -0.18344 | 210 ft | 11 kts | 168° |
| 2026-05-04 10:08 | 51.15502 | -0.18316 | 212 ft | 11 kts | 166° |
| 2026-05-04 10:09 | 51.15425 | -0.18290 | 208 ft | 11 kts | 168° |
| 2026-05-04 10:09 | 51.15351 | -0.18265 | 209 ft | 11 kts | 168° |
| 2026-05-04 10:09 | 51.15278 | -0.18241 | 207 ft | 10 kts | 168° |
| 2026-05-04 10:09 | 51.15208 | -0.18231 | 208 ft | 10 kts | 199° |
| 2026-05-04 10:10 | 51.15186 | -0.18331 | 210 ft | 10 kts | 259° |
| 2026-05-04 10:10 | 51.15169 | -0.18457 | 207 ft | 13 kts | 257° |
| 2026-05-04 10:10 | 51.15149 | -0.18599 | 204 ft | 13 kts | 258° |
| 2026-05-04 10:10 | 51.15130 | -0.18738 | 204 ft | 13 kts | 257° |
| 2026-05-04 10:11 | 51.15112 | -0.18873 | 215 ft | 12 kts | 258° |
| 2026-05-04 10:11 | 51.15095 | -0.19004 | 206 ft | 12 kts | 258° |
| 2026-05-04 10:11 | 51.15077 | -0.19132 | 204 ft | 12 kts | 257° |
| 2026-05-04 10:11 | 51.15063 | -0.19229 | 204 ft | 9 kts | 253° |
| 2026-05-04 10:12 | 51.15022 | -0.19271 | 208 ft | 7 kts | 177° |
| 2026-05-04 10:12 | 51.14974 | -0.19277 | 212 ft | 7 kts | 206° |
| 2026-05-04 10:12 | 51.14951 | -0.19371 | 209 ft | 13 kts | 258° |
| 2026-05-04 10:12 | 51.14930 | -0.19522 | 206 ft | 14 kts | 256° |
| 2026-05-04 10:13 | 51.14908 | -0.19673 | 211 ft | 14 kts | 257° |
| 2026-05-04 10:13 | 51.14889 | -0.19818 | 209 ft | 13 kts | 258° |
| 2026-05-04 10:13 | 51.14870 | -0.19959 | 214 ft | 14 kts | 257° |
| 2026-05-04 10:13 | 51.14846 | -0.20124 | 205 ft | 16 kts | 257° |
| 2026-05-04 10:14 | 51.14823 | -0.20297 | 210 ft | 16 kts | 258° |
| 2026-05-04 10:14 | 51.14801 | -0.20464 | 208 ft | 15 kts | 257° |
| 2026-05-04 10:16 | 51.14670 | -0.21327 | 206 ft | 5 kts | 217° |
| 2026-05-04 10:16 | 51.14634 | -0.21334 | 204 ft | 5 kts | 165° |
| 2026-05-04 10:16 | 51.14619 | -0.21329 | 204 ft | 0 kts | 167° |
| 2026-05-04 10:17 | 51.14617 | -0.21328 | 204 ft | 1 kts | 167° |
| 2026-05-04 10:17 | 51.14588 | -0.21317 | 213 ft | 6 kts | 165° |
| 2026-05-04 10:19 | 51.15455 | -0.14251 | 2796 ft | 194 kts | 77° |
| 2026-05-04 10:19 | 51.15797 | -0.11865 | 2976 ft | 251 kts | 77° |
| 2026-05-04 10:19 | 51.16207 | -0.09010 | 3022 ft | 303 kts | 76° |
| 2026-05-04 10:19 | 51.17069 | -0.05629 | 3005 ft | 359 kts | 55° |
| 2026-05-04 10:20 | 51.18963 | -0.02881 | 2997 ft | 368 kts | 30° |
| 2026-05-04 10:20 | 51.21340 | -0.01774 | 2988 ft | 348 kts | 2° |
| 2026-05-04 10:20 | 51.23621 | -0.02497 | 2984 ft | 328 kts | 334° |
| 2026-05-04 10:20 | 51.25291 | -0.04771 | 2990 ft | 310 kts | 304° |
| 2026-05-04 10:21 | 51.25943 | -0.07913 | 3085 ft | 293 kts | 271° |
| 2026-05-04 10:21 | 51.25419 | -0.10895 | 3469 ft | 273 kts | 236° |
| 2026-05-04 10:21 | 51.24047 | -0.12883 | 3852 ft | 266 kts | 213° |
| 2026-05-04 10:21 | 51.22740 | -0.14921 | 3967 ft | 267 kts | 243° |
| 2026-05-04 10:22 | 51.21756 | -0.20686 | 5236 ft | 270 kts | 256° |
| 2026-05-04 10:22 | 51.21339 | -0.23608 | 6100 ft | 270 kts | 256° |
| 2026-05-04 10:22 | 51.20946 | -0.26539 | 6940 ft | 271 kts | 257° |
| 2026-05-04 10:23 | 51.20560 | -0.29499 | 7769 ft | 274 kts | 257° |
| 2026-05-04 10:23 | 51.20174 | -0.32493 | 8577 ft | 277 kts | 257° |
| 2026-05-04 10:25 | 51.17301 | -0.54292 | 14157 ft | 303 kts | 251° |
| 2026-05-04 10:25 | 51.16512 | -0.57556 | 14361 ft | 327 kts | 245° |
| 2026-05-04 10:25 | 51.15549 | -0.60984 | 14542 ft | 350 kts | 244° |
| 2026-05-04 10:25 | 51.14517 | -0.64621 | 14786 ft | 369 kts | 245° |
| 2026-05-04 10:26 | 51.13464 | -0.68400 | 15370 ft | 377 kts | 245° |
| 2026-05-04 10:26 | 51.12415 | -0.72239 | 16133 ft | 379 kts | 245° |
| 2026-05-04 10:26 | 51.11370 | -0.76113 | 16902 ft | 382 kts | 245° |
| 2026-05-04 10:26 | 51.10512 | -0.79307 | 17487 ft | 385 kts | 245° |
| 2026-05-04 10:27 | 51.09453 | -0.83245 | 18188 ft | 389 kts | 245° |
| 2026-05-04 10:27 | 51.08428 | -0.87258 | 18800 ft | 394 kts | 252° |
| 2026-05-04 10:27 | 51.08105 | -0.91615 | 19386 ft | 401 kts | 272° |
| 2026-05-04 10:27 | 51.08736 | -0.95959 | 20038 ft | 408 kts | 291° |
| 2026-05-04 10:28 | 51.10212 | -0.99857 | 20573 ft | 417 kts | 308° |
| 2026-05-04 10:28 | 51.12416 | -1.02887 | 21159 ft | 424 kts | 326° |
| 2026-05-04 10:28 | 51.14957 | -1.05329 | 21788 ft | 427 kts | 328° |
| 2026-05-04 10:28 | 51.17505 | -1.07679 | 22343 ft | 431 kts | 328° |
| 2026-05-04 10:29 | 51.20106 | -1.10083 | 22883 ft | 434 kts | 328° |
| 2026-05-04 10:29 | 51.22729 | -1.12545 | 23431 ft | 437 kts | 328° |
| 2026-05-04 10:29 | 51.25352 | -1.15045 | 23898 ft | 440 kts | 327° |
| 2026-05-04 10:29 | 51.27987 | -1.17581 | 24310 ft | 444 kts | 327° |
| 2026-05-04 10:30 | 51.30644 | -1.20146 | 24711 ft | 448 kts | 327° |
| 2026-05-04 10:30 | 51.33327 | -1.22714 | 25115 ft | 452 kts | 328° |
| 2026-05-04 10:30 | 51.36191 | -1.24896 | 25529 ft | 458 kts | 336° |
| 2026-05-04 10:30 | 51.39193 | -1.26666 | 25936 ft | 461 kts | 338° |
| 2026-05-04 10:31 | 51.42230 | -1.28391 | 26295 ft | 465 kts | 338° |
| 2026-05-04 10:31 | 51.45288 | -1.30160 | 26649 ft | 469 kts | 337° |
| 2026-05-04 10:32 | 51.62517 | -1.44675 | 28780 ft | 467 kts | 301° |
| 2026-05-04 10:33 | 51.64144 | -1.49105 | 29132 ft | 464 kts | 292° |
| 2026-05-04 10:33 | 51.65580 | -1.53762 | 29556 ft | 464 kts | 292° |
| 2026-05-04 10:33 | 51.67048 | -1.58402 | 30023 ft | 464 kts | 293° |
| 2026-05-04 10:33 | 51.68555 | -1.63032 | 30033 ft | 469 kts | 294° |
| 2026-05-04 10:34 | 51.70778 | -1.72739 | 30035 ft | 455 kts | 276° |
| 2026-05-04 10:34 | 51.71456 | -1.82779 | 30035 ft | 450 kts | 271° |
| 2026-05-04 10:35 | 51.72568 | -1.92769 | 30049 ft | 455 kts | 279° |
| 2026-05-04 10:35 | 51.74137 | -2.02695 | 30048 ft | 458 kts | 281° |
| 2026-05-04 10:36 | 51.75687 | -2.12686 | 30049 ft | 459 kts | 280° |
| 2026-05-04 10:36 | 51.77176 | -2.22720 | 30047 ft | 460 kts | 280° |
| 2026-05-04 10:37 | 51.78636 | -2.32731 | 30038 ft | 461 kts | 280° |
| 2026-05-04 10:37 | 51.80098 | -2.42828 | 30061 ft | 461 kts | 281° |
| 2026-05-04 10:39 | 51.85026 | -2.78437 | 30035 ft | 465 kts | 281° |
| 2026-05-04 10:40 | 51.86389 | -2.88678 | 30052 ft | 466 kts | 281° |
| 2026-05-04 10:40 | 51.87741 | -2.98877 | 30039 ft | 467 kts | 281° |
| 2026-05-04 10:41 | 51.89096 | -3.09161 | 30043 ft | 465 kts | 281° |
| 2026-05-04 10:41 | 51.90436 | -3.19404 | 30053 ft | 464 kts | 281° |
| 2026-05-04 10:42 | 51.91762 | -3.29629 | 30043 ft | 463 kts | 281° |
| 2026-05-04 10:42 | 51.93076 | -3.39839 | 30031 ft | 463 kts | 281° |
| 2026-05-04 10:43 | 51.94389 | -3.50084 | 30028 ft | 465 kts | 282° |
| 2026-05-04 10:45 | 51.99418 | -3.89721 | 30019 ft | 473 kts | 283° |
| 2026-05-04 10:45 | 52.00731 | -4.00196 | 30032 ft | 476 kts | 283° |
| 2026-05-04 10:46 | 52.02047 | -4.10799 | 30025 ft | 480 kts | 283° |
| 2026-05-04 10:46 | 52.03256 | -4.21510 | 30029 ft | 485 kts | 277° |
| 2026-05-04 10:47 | 52.03196 | -4.32431 | 30054 ft | 489 kts | 268° |
| 2026-05-04 10:47 | 52.02859 | -4.43485 | 30042 ft | 489 kts | 269° |
| 2026-05-04 10:49 | 52.01779 | -4.87422 | 30035 ft | 487 kts | 270° |
| 2026-05-04 10:50 | 52.01543 | -4.98481 | 30033 ft | 496 kts | 275° |
| 2026-05-04 10:51 | 52.13983 | -5.29844 | 30034 ft | 478 kts | 316° |
| 2026-05-04 10:52 | 52.16152 | -5.33947 | 30040 ft | 475 kts | 320° |
| 2026-05-04 10:52 | 52.18649 | -5.37315 | 30042 ft | 460 kts | 334° |
| 2026-05-04 10:52 | 52.21456 | -5.39663 | 30050 ft | 448 kts | 345° |
| 2026-05-04 10:54 | 52.42424 | -5.47186 | 26538 ft | 457 kts | 339° |
| 2026-05-04 10:54 | 52.45188 | -5.49732 | 25828 ft | 457 kts | 331° |
| 2026-05-04 10:56 | 52.62124 | -5.71561 | 21253 ft | 424 kts | 325° |
| 2026-05-04 10:56 | 52.64434 | -5.74537 | 20612 ft | 420 kts | 324° |
| 2026-05-04 10:56 | 52.66729 | -5.77495 | 19961 ft | 416 kts | 324° |
| 2026-05-04 10:57 | 52.68998 | -5.80425 | 19357 ft | 413 kts | 324° |
| 2026-05-04 10:57 | 52.71219 | -5.83296 | 18753 ft | 410 kts | 324° |
| 2026-05-04 10:57 | 52.73486 | -5.86231 | 18089 ft | 407 kts | 323° |
| 2026-05-04 10:57 | 52.75675 | -5.89071 | 17433 ft | 404 kts | 323° |
| 2026-05-04 10:58 | 52.77876 | -5.91931 | 16801 ft | 400 kts | 325° |
| 2026-05-04 10:58 | 52.80050 | -5.94757 | 16195 ft | 396 kts | 324° |
| 2026-05-04 10:58 | 52.82210 | -5.97566 | 15610 ft | 392 kts | 323° |
| 2026-05-04 10:58 | 52.84340 | -6.00344 | 15023 ft | 388 kts | 323° |
| 2026-05-04 10:59 | 52.86449 | -6.03101 | 14439 ft | 384 kts | 323° |
| 2026-05-04 10:59 | 52.88536 | -6.05831 | 13870 ft | 381 kts | 322° |
| 2026-05-04 10:59 | 52.90607 | -6.08539 | 13228 ft | 377 kts | 322° |
| 2026-05-04 10:59 | 52.92655 | -6.11225 | 12635 ft | 373 kts | 322° |
| 2026-05-04 11:00 | 52.94680 | -6.13879 | 12067 ft | 369 kts | 323° |
| 2026-05-04 11:01 | 53.07661 | -6.30846 | 10268 ft | 302 kts | 322° |
| 2026-05-04 11:02 | 53.09288 | -6.32972 | 10130 ft | 293 kts | 323° |
| 2026-05-04 11:02 | 53.10860 | -6.35048 | 9954 ft | 286 kts | 322° |
| 2026-05-04 11:05 | 53.32341 | -6.60279 | 6005 ft | 252 kts | 357° |
| 2026-05-04 11:06 | 53.34067 | -6.60399 | 5909 ft | 244 kts | 358° |
| 2026-05-04 11:06 | 53.35730 | -6.60504 | 5858 ft | 234 kts | 358° |
| 2026-05-04 11:06 | 53.37322 | -6.60601 | 5842 ft | 226 kts | 358° |
| 2026-05-04 11:06 | 53.38895 | -6.60697 | 5695 ft | 230 kts | 358° |
| 2026-05-04 11:08 | 53.48176 | -6.53635 | 3260 ft | 226 kts | 76° |
| 2026-05-04 11:10 | 53.53319 | -6.58486 | 3896 ft | 206 kts | 244° |
| 2026-05-04 11:12 | 53.45426 | -6.63814 | 2957 ft | 184 kts | 116° |
| 2026-05-04 11:12 | 53.45243 | -6.61790 | 2997 ft | 180 kts | 79° |
| 2026-05-04 11:12 | 53.45322 | -6.59680 | 2978 ft | 178 kts | 84° |
| 2026-05-04 11:12 | 53.45347 | -6.57647 | 2961 ft | 171 kts | 86° |
| 2026-05-04 11:13 | 53.45281 | -6.55663 | 2971 ft | 170 kts | 91° |
| 2026-05-04 11:13 | 53.45171 | -6.53709 | 2978 ft | 167 kts | 92° |
| 2026-05-04 11:13 | 53.45058 | -6.51752 | 2985 ft | 168 kts | 92° |
| 2026-05-04 11:13 | 53.44945 | -6.49795 | 2765 ft | 167 kts | 92° |
| 2026-05-04 11:14 | 53.44837 | -6.47918 | 2531 ft | 161 kts | 93° |
| 2026-05-04 11:14 | 53.44730 | -6.46056 | 2363 ft | 163 kts | 94° |
| 2026-05-04 11:14 | 53.44623 | -6.44163 | 2123 ft | 162 kts | 92° |
| 2026-05-04 11:16 | 53.43935 | -6.32286 | 782 ft | 141 kts | 93° |
| 2026-05-04 11:16 | 53.43854 | -6.30664 | 595 ft | 139 kts | 91° |
| 2026-05-04 11:16 | 53.43779 | -6.29061 | 405 ft | 138 kts | 91° |
| 2026-05-04 11:17 | 53.43674 | -6.27470 | 229 ft | 136 kts | 91° |
| 2026-05-04 11:17 | 53.43609 | -6.26061 | 209 ft | 96 kts | 94° |
| 2026-05-04 11:19 | 53.43357 | -6.24640 | 214 ft | 10 kts | 94° |
| 2026-05-04 11:19 | 53.43353 | -6.24530 | 210 ft | 9 kts | 94° |
| 2026-05-04 11:19 | 53.43345 | -6.24437 | 210 ft | 7 kts | 115° |
| 2026-05-04 11:19 | 53.43301 | -6.24402 | 210 ft | 7 kts | 183° |
| 2026-05-04 11:20 | 53.43251 | -6.24410 | 213 ft | 7 kts | 186° |
| 2026-05-04 11:20 | 53.43204 | -6.24429 | 212 ft | 7 kts | 212° |
| 2026-05-04 11:20 | 53.43188 | -6.24497 | 210 ft | 6 kts | 269° |
| 2026-05-04 11:20 | 53.43187 | -6.24538 | 213 ft | 2 kts | 257° |
| 2026-05-04 11:22 | 53.43084 | -6.24568 | 217 ft | 0 kts | 185° |